sensor_id;sensor_type;location;lat;lon;timestamp;P1;durP1;ratioP1;P2;durP2;ratioP2
20671;SDS011;10495;50.922;4.760;2023-09-12T00:00:42;11.57;;;8.17;;
20671;SDS011;10495;50.922;4.760;2023-09-12T00:03:08;11.02;;;7.82;;
20671;SDS011;10495;50.922;4.760;2023-09-12T00:05:34;13.70;;;9.40;;
20671;SDS011;10495;50.922;4.760;2023-09-12T00:07:59;14.87;;;10.43;;
20671;SDS011;10495;50.922;4.760;2023-09-12T00:10:25;13.95;;;9.80;;
20671;SDS011;10495;50.922;4.760;2023-09-12T00:12:51;11.70;;;8.73;;
20671;SDS011;10495;50.922;4.760;2023-09-12T00:15:16;12.95;;;9.80;;
20671;SDS011;10495;50.922;4.760;2023-09-12T00:17:44;13.57;;;10.25;;
20671;SDS011;10495;50.922;4.760;2023-09-12T00:20:09;12.65;;;9.82;;
20671;SDS011;10495;50.922;4.760;2023-09-12T00:22:36;10.88;;;8.55;;
20671;SDS011;10495;50.922;4.760;2023-09-12T00:25:01;13.73;;;9.80;;
20671;SDS011;10495;50.922;4.760;2023-09-12T00:27:28;16.13;;;11.17;;
20671;SDS011;10495;50.922;4.760;2023-09-12T00:29:53;15.63;;;10.60;;
20671;SDS011;10495;50.922;4.760;2023-09-12T00:32:19;19.73;;;13.02;;
20671;SDS011;10495;50.922;4.760;2023-09-12T00:34:44;13.85;;;10.90;;
20671;SDS011;10495;50.922;4.760;2023-09-12T00:37:10;15.00;;;10.18;;
20671;SDS011;10495;50.922;4.760;2023-09-12T00:39:36;16.52;;;10.35;;
20671;SDS011;10495;50.922;4.760;2023-09-12T00:42:02;13.52;;;9.18;;
20671;SDS011;10495;50.922;4.760;2023-09-12T00:44:28;12.23;;;7.40;;
20671;SDS011;10495;50.922;4.760;2023-09-12T00:46:54;10.17;;;7.80;;
20671;SDS011;10495;50.922;4.760;2023-09-12T00:49:20;9.82;;;7.68;;
20671;SDS011;10495;50.922;4.760;2023-09-12T00:51:47;9.60;;;7.35;;
20671;SDS011;10495;50.922;4.760;2023-09-12T00:54:15;11.17;;;8.57;;
20671;SDS011;10495;50.922;4.760;2023-09-12T00:56:41;11.20;;;7.65;;
20671;SDS011;10495;50.922;4.760;2023-09-12T00:59:07;12.07;;;7.93;;
20671;SDS011;10495;50.922;4.760;2023-09-12T01:01:35;11.57;;;9.30;;
20671;SDS011;10495;50.922;4.760;2023-09-12T01:04:01;16.70;;;11.68;;
20671;SDS011;10495;50.922;4.760;2023-09-12T01:06:27;15.32;;;10.75;;
20671;SDS011;10495;50.922;4.760;2023-09-12T01:08:54;14.97;;;10.60;;
20671;SDS011;10495;50.922;4.760;2023-09-12T01:11:20;13.57;;;10.70;;
20671;SDS011;10495;50.922;4.760;2023-09-12T01:13:47;15.80;;;11.37;;
20671;SDS011;10495;50.922;4.760;2023-09-12T01:16:12;15.85;;;11.32;;
20671;SDS011;10495;50.922;4.760;2023-09-12T01:18:38;12.80;;;9.53;;
20671;SDS011;10495;50.922;4.760;2023-09-12T01:30:01;14.33;;;8.73;;
20671;SDS011;10495;50.922;4.760;2023-09-12T01:32:29;13.73;;;8.23;;
20671;SDS011;10495;50.922;4.760;2023-09-12T01:34:57;7.80;;;6.67;;
20671;SDS011;10495;50.922;4.760;2023-09-12T01:37:22;9.30;;;7.07;;
20671;SDS011;10495;50.922;4.760;2023-09-12T01:39:48;8.43;;;7.30;;
20671;SDS011;10495;50.922;4.760;2023-09-12T01:42:15;13.27;;;8.43;;
20671;SDS011;10495;50.922;4.760;2023-09-12T01:44:43;9.17;;;7.30;;
20671;SDS011;10495;50.922;4.760;2023-09-12T01:47:10;11.10;;;8.27;;
20671;SDS011;10495;50.922;4.760;2023-09-12T01:49:38;10.68;;;7.65;;
20671;SDS011;10495;50.922;4.760;2023-09-12T01:52:07;11.88;;;8.27;;
20671;SDS011;10495;50.922;4.760;2023-09-12T01:54:33;10.00;;;7.70;;
20671;SDS011;10495;50.922;4.760;2023-09-12T01:57:01;8.33;;;6.87;;
20671;SDS011;10495;50.922;4.760;2023-09-12T01:59:28;10.47;;;7.37;;
20671;SDS011;10495;50.922;4.760;2023-09-12T02:01:54;11.20;;;6.97;;
20671;SDS011;10495;50.922;4.760;2023-09-12T02:04:20;12.90;;;9.20;;
20671;SDS011;10495;50.922;4.760;2023-09-12T02:06:45;16.47;;;10.80;;
20671;SDS011;10495;50.922;4.760;2023-09-12T02:09:11;10.80;;;7.93;;
20671;SDS011;10495;50.922;4.760;2023-09-12T02:11:37;8.73;;;7.37;;
20671;SDS011;10495;50.922;4.760;2023-09-12T02:14:02;8.43;;;6.75;;
20671;SDS011;10495;50.922;4.760;2023-09-12T02:16:29;8.80;;;7.50;;
20671;SDS011;10495;50.922;4.760;2023-09-12T02:18:56;9.27;;;7.10;;
20671;SDS011;10495;50.922;4.760;2023-09-12T02:21:21;10.43;;;7.73;;
20671;SDS011;10495;50.922;4.760;2023-09-12T02:23:47;13.47;;;7.80;;
20671;SDS011;10495;50.922;4.760;2023-09-12T02:26:13;8.90;;;7.17;;
20671;SDS011;10495;50.922;4.760;2023-09-12T02:28:38;14.60;;;7.33;;
20671;SDS011;10495;50.922;4.760;2023-09-12T02:31:09;11.43;;;7.00;;
20671;SDS011;10495;50.922;4.760;2023-09-12T02:33:37;7.75;;;6.25;;
20671;SDS011;10495;50.922;4.760;2023-09-12T02:36:03;7.73;;;6.23;;
20671;SDS011;10495;50.922;4.760;2023-09-12T02:38:29;10.67;;;5.70;;
20671;SDS011;10495;50.922;4.760;2023-09-12T02:40:55;8.77;;;6.33;;
20671;SDS011;10495;50.922;4.760;2023-09-12T02:43:21;8.40;;;6.60;;
20671;SDS011;10495;50.922;4.760;2023-09-12T02:45:46;10.45;;;7.40;;
20671;SDS011;10495;50.922;4.760;2023-09-12T02:48:12;10.13;;;6.57;;
20671;SDS011;10495;50.922;4.760;2023-09-12T02:50:37;12.33;;;7.13;;
20671;SDS011;10495;50.922;4.760;2023-09-12T02:53:03;13.80;;;8.00;;
20671;SDS011;10495;50.922;4.760;2023-09-12T02:55:29;11.50;;;8.17;;
20671;SDS011;10495;50.922;4.760;2023-09-12T02:57:54;14.33;;;9.37;;
20671;SDS011;10495;50.922;4.760;2023-09-12T03:00:20;10.73;;;7.87;;
20671;SDS011;10495;50.922;4.760;2023-09-12T03:02:46;8.05;;;6.72;;
20671;SDS011;10495;50.922;4.760;2023-09-12T03:05:12;14.87;;;7.10;;
20671;SDS011;10495;50.922;4.760;2023-09-12T03:07:38;16.07;;;9.27;;
20671;SDS011;10495;50.922;4.760;2023-09-12T03:10:03;14.07;;;9.43;;
20671;SDS011;10495;50.922;4.760;2023-09-12T03:12:30;16.63;;;9.00;;
20671;SDS011;10495;50.922;4.760;2023-09-12T03:14:56;14.33;;;8.47;;
20671;SDS011;10495;50.922;4.760;2023-09-12T03:17:21;10.43;;;7.43;;
20671;SDS011;10495;50.922;4.760;2023-09-12T03:19:47;7.97;;;6.23;;
20671;SDS011;10495;50.922;4.760;2023-09-12T03:22:13;11.70;;;7.47;;
20671;SDS011;10495;50.922;4.760;2023-09-12T03:24:38;9.03;;;7.00;;
20671;SDS011;10495;50.922;4.760;2023-09-12T03:27:04;15.87;;;10.63;;
20671;SDS011;10495;50.922;4.760;2023-09-12T03:29:30;16.07;;;9.93;;
20671;SDS011;10495;50.922;4.760;2023-09-12T03:31:55;14.43;;;9.23;;
20671;SDS011;10495;50.922;4.760;2023-09-12T03:34:21;12.43;;;9.33;;
20671;SDS011;10495;50.922;4.760;2023-09-12T03:36:47;13.47;;;8.23;;
20671;SDS011;10495;50.922;4.760;2023-09-12T03:39:12;13.23;;;9.18;;
20671;SDS011;10495;50.922;4.760;2023-09-12T03:41:38;9.90;;;7.40;;
20671;SDS011;10495;50.922;4.760;2023-09-12T03:44:04;8.43;;;6.37;;
20671;SDS011;10495;50.922;4.760;2023-09-12T03:46:30;9.67;;;7.07;;
20671;SDS011;10495;50.922;4.760;2023-09-12T03:48:56;11.77;;;7.60;;
20671;SDS011;10495;50.922;4.760;2023-09-12T03:51:21;9.23;;;7.40;;
20671;SDS011;10495;50.922;4.760;2023-09-12T03:53:47;9.60;;;7.90;;
20671;SDS011;10495;50.922;4.760;2023-09-12T03:56:15;10.15;;;8.15;;
20671;SDS011;10495;50.922;4.760;2023-09-12T03:58:40;11.17;;;7.97;;
20671;SDS011;10495;50.922;4.760;2023-09-12T04:01:06;18.60;;;8.80;;
20671;SDS011;10495;50.922;4.760;2023-09-12T04:03:32;9.40;;;6.70;;
20671;SDS011;10495;50.922;4.760;2023-09-12T04:05:58;9.60;;;6.57;;
20671;SDS011;10495;50.922;4.760;2023-09-12T04:08:23;13.10;;;7.30;;
20671;SDS011;10495;50.922;4.760;2023-09-12T04:10:49;10.67;;;7.50;;
20671;SDS011;10495;50.922;4.760;2023-09-12T04:13:15;10.70;;;7.40;;
20671;SDS011;10495;50.922;4.760;2023-09-12T04:15:40;17.90;;;10.47;;
20671;SDS011;10495;50.922;4.760;2023-09-12T04:18:06;12.50;;;8.83;;
20671;SDS011;10495;50.922;4.760;2023-09-12T04:20:32;16.02;;;11.05;;
20671;SDS011;10495;50.922;4.760;2023-09-12T04:23:00;18.87;;;11.17;;
20671;SDS011;10495;50.922;4.760;2023-09-12T04:25:27;17.95;;;9.65;;
20671;SDS011;10495;50.922;4.760;2023-09-12T04:27:53;15.88;;;9.13;;
20671;SDS011;10495;50.922;4.760;2023-09-12T04:30:19;14.70;;;10.13;;
20671;SDS011;10495;50.922;4.760;2023-09-12T04:32:44;15.52;;;10.05;;
20671;SDS011;10495;50.922;4.760;2023-09-12T04:35:10;17.50;;;10.70;;
20671;SDS011;10495;50.922;4.760;2023-09-12T04:37:36;15.03;;;9.90;;
20671;SDS011;10495;50.922;4.760;2023-09-12T04:40:02;15.53;;;10.90;;
20671;SDS011;10495;50.922;4.760;2023-09-12T04:42:30;18.93;;;11.10;;
20671;SDS011;10495;50.922;4.760;2023-09-12T04:44:56;18.30;;;12.43;;
20671;SDS011;10495;50.922;4.760;2023-09-12T04:47:21;15.70;;;11.27;;
20671;SDS011;10495;50.922;4.760;2023-09-12T04:49:47;20.90;;;13.70;;
20671;SDS011;10495;50.922;4.760;2023-09-12T04:52:13;18.63;;;12.23;;
20671;SDS011;10495;50.922;4.760;2023-09-12T04:54:38;14.82;;;10.40;;
20671;SDS011;10495;50.922;4.760;2023-09-12T04:57:04;15.20;;;10.85;;
20671;SDS011;10495;50.922;4.760;2023-09-12T04:59:30;16.27;;;11.80;;
20671;SDS011;10495;50.922;4.760;2023-09-12T05:01:55;13.40;;;10.40;;
20671;SDS011;10495;50.922;4.760;2023-09-12T05:04:21;15.73;;;11.90;;
20671;SDS011;10495;50.922;4.760;2023-09-12T05:06:46;18.23;;;12.27;;
20671;SDS011;10495;50.922;4.760;2023-09-12T05:09:12;21.17;;;13.77;;
20671;SDS011;10495;50.922;4.760;2023-09-12T05:11:38;14.80;;;10.23;;
20671;SDS011;10495;50.922;4.760;2023-09-12T05:14:04;13.05;;;8.55;;
20671;SDS011;10495;50.922;4.760;2023-09-12T05:16:30;12.40;;;8.85;;
20671;SDS011;10495;50.922;4.760;2023-09-12T05:18:55;12.13;;;8.90;;
20671;SDS011;10495;50.922;4.760;2023-09-12T05:21:21;12.93;;;8.55;;
20671;SDS011;10495;50.922;4.760;2023-09-12T05:23:46;12.13;;;9.03;;
20671;SDS011;10495;50.922;4.760;2023-09-12T05:26:12;11.17;;;9.13;;
20671;SDS011;10495;50.922;4.760;2023-09-12T05:28:38;13.10;;;8.70;;
20671;SDS011;10495;50.922;4.760;2023-09-12T05:31:04;14.02;;;9.52;;
20671;SDS011;10495;50.922;4.760;2023-09-12T05:33:30;12.80;;;9.97;;
20671;SDS011;10495;50.922;4.760;2023-09-12T05:35:55;17.00;;;11.00;;
20671;SDS011;10495;50.922;4.760;2023-09-12T05:38:21;13.00;;;8.90;;
20671;SDS011;10495;50.922;4.760;2023-09-12T05:40:47;17.30;;;9.73;;
20671;SDS011;10495;50.922;4.760;2023-09-12T05:43:15;11.50;;;8.33;;
20671;SDS011;10495;50.922;4.760;2023-09-12T05:45:41;10.33;;;8.30;;
20671;SDS011;10495;50.922;4.760;2023-09-12T05:48:07;12.63;;;8.70;;
20671;SDS011;10495;50.922;4.760;2023-09-12T05:50:34;12.13;;;9.17;;
20671;SDS011;10495;50.922;4.760;2023-09-12T05:53:01;11.90;;;8.23;;
20671;SDS011;10495;50.922;4.760;2023-09-12T05:55:27;15.87;;;9.17;;
20671;SDS011;10495;50.922;4.760;2023-09-12T05:57:52;13.93;;;9.73;;
20671;SDS011;10495;50.922;4.760;2023-09-12T06:00:18;11.17;;;8.23;;
20671;SDS011;10495;50.922;4.760;2023-09-12T06:02:45;9.93;;;7.37;;
20671;SDS011;10495;50.922;4.760;2023-09-12T06:05:11;12.40;;;8.63;;
20671;SDS011;10495;50.922;4.760;2023-09-12T06:07:37;14.57;;;8.83;;
20671;SDS011;10495;50.922;4.760;2023-09-12T06:10:05;10.37;;;8.43;;
20671;SDS011;10495;50.922;4.760;2023-09-12T06:12:31;14.98;;;9.30;;
20671;SDS011;10495;50.922;4.760;2023-09-12T06:14:58;16.20;;;9.20;;
20671;SDS011;10495;50.922;4.760;2023-09-12T06:17:24;10.90;;;8.07;;
20671;SDS011;10495;50.922;4.760;2023-09-12T06:19:50;15.88;;;10.35;;
20671;SDS011;10495;50.922;4.760;2023-09-12T06:22:16;13.17;;;9.80;;
20671;SDS011;10495;50.922;4.760;2023-09-12T06:24:42;11.70;;;9.10;;
20671;SDS011;10495;50.922;4.760;2023-09-12T06:27:08;15.02;;;9.98;;
20671;SDS011;10495;50.922;4.760;2023-09-12T06:29:35;16.10;;;9.23;;
20671;SDS011;10495;50.922;4.760;2023-09-12T06:32:00;19.40;;;11.33;;
20671;SDS011;10495;50.922;4.760;2023-09-12T06:34:27;14.35;;;9.25;;
20671;SDS011;10495;50.922;4.760;2023-09-12T06:36:53;17.67;;;10.85;;
20671;SDS011;10495;50.922;4.760;2023-09-12T06:39:18;19.88;;;11.40;;
20671;SDS011;10495;50.922;4.760;2023-09-12T06:41:44;16.67;;;10.52;;
20671;SDS011;10495;50.922;4.760;2023-09-12T06:44:10;24.13;;;13.50;;
20671;SDS011;10495;50.922;4.760;2023-09-12T06:46:35;21.83;;;13.15;;
20671;SDS011;10495;50.922;4.760;2023-09-12T06:49:02;22.23;;;15.48;;
20671;SDS011;10495;50.922;4.760;2023-09-12T06:51:28;22.20;;;15.88;;
20671;SDS011;10495;50.922;4.760;2023-09-12T06:53:54;22.77;;;15.75;;
20671;SDS011;10495;50.922;4.760;2023-09-12T06:56:20;23.25;;;14.13;;
20671;SDS011;10495;50.922;4.760;2023-09-12T06:58:46;20.27;;;13.48;;
20671;SDS011;10495;50.922;4.760;2023-09-12T07:01:12;25.90;;;15.80;;
20671;SDS011;10495;50.922;4.760;2023-09-12T07:03:38;30.77;;;18.02;;
20671;SDS011;10495;50.922;4.760;2023-09-12T07:06:04;25.27;;;16.42;;
20671;SDS011;10495;50.922;4.760;2023-09-12T07:08:30;27.05;;;16.63;;
20671;SDS011;10495;50.922;4.760;2023-09-12T07:10:56;31.65;;;19.95;;
20671;SDS011;10495;50.922;4.760;2023-09-12T07:13:23;36.53;;;21.30;;
20671;SDS011;10495;50.922;4.760;2023-09-12T07:15:49;34.42;;;22.17;;
20671;SDS011;10495;50.922;4.760;2023-09-12T07:18:16;44.00;;;25.83;;
20671;SDS011;10495;50.922;4.760;2023-09-12T07:20:42;38.75;;;25.02;;
20671;SDS011;10495;50.922;4.760;2023-09-12T07:23:08;38.85;;;24.33;;
20671;SDS011;10495;50.922;4.760;2023-09-12T07:25:40;35.08;;;22.15;;
20671;SDS011;10495;50.922;4.760;2023-09-12T07:28:09;34.13;;;21.77;;
20671;SDS011;10495;50.922;4.760;2023-09-12T07:30:35;38.67;;;23.25;;
20671;SDS011;10495;50.922;4.760;2023-09-12T07:33:02;31.30;;;21.88;;
20671;SDS011;10495;50.922;4.760;2023-09-12T07:35:29;29.95;;;19.70;;
20671;SDS011;10495;50.922;4.760;2023-09-12T07:37:55;38.25;;;23.35;;
20671;SDS011;10495;50.922;4.760;2023-09-12T07:40:21;38.10;;;23.92;;
20671;SDS011;10495;50.922;4.760;2023-09-12T07:42:47;27.90;;;17.88;;
20671;SDS011;10495;50.922;4.760;2023-09-12T07:45:12;31.17;;;19.83;;
20671;SDS011;10495;50.922;4.760;2023-09-12T07:47:38;38.58;;;22.33;;
20671;SDS011;10495;50.922;4.760;2023-09-12T07:50:04;25.77;;;16.60;;
20671;SDS011;10495;50.922;4.760;2023-09-12T07:52:32;33.97;;;21.33;;
20671;SDS011;10495;50.922;4.760;2023-09-12T07:55:03;36.78;;;23.23;;
20671;SDS011;10495;50.922;4.760;2023-09-12T07:57:29;31.45;;;20.20;;
20671;SDS011;10495;50.922;4.760;2023-09-12T07:59:56;35.45;;;22.35;;
20671;SDS011;10495;50.922;4.760;2023-09-12T08:02:21;29.70;;;20.77;;
20671;SDS011;10495;50.922;4.760;2023-09-12T08:04:48;30.77;;;20.30;;
20671;SDS011;10495;50.922;4.760;2023-09-12T08:07:15;26.63;;;18.27;;
20671;SDS011;10495;50.922;4.760;2023-09-12T08:09:59;34.53;;;20.60;;
20671;SDS011;10495;50.922;4.760;2023-09-12T08:12:26;30.00;;;20.58;;
20671;SDS011;10495;50.922;4.760;2023-09-12T08:14:52;32.65;;;19.65;;
20671;SDS011;10495;50.922;4.760;2023-09-12T08:17:19;31.48;;;17.75;;
20671;SDS011;10495;50.922;4.760;2023-09-12T08:19:45;29.65;;;19.63;;
20671;SDS011;10495;50.922;4.760;2023-09-12T08:22:11;33.00;;;19.52;;
20671;SDS011;10495;50.922;4.760;2023-09-12T08:24:37;24.67;;;14.68;;
20671;SDS011;10495;50.922;4.760;2023-09-12T08:27:06;24.35;;;15.95;;
20671;SDS011;10495;50.922;4.760;2023-09-12T08:29:33;21.98;;;13.65;;
20671;SDS011;10495;50.922;4.760;2023-09-12T08:31:59;33.10;;;18.55;;
20671;SDS011;10495;50.922;4.760;2023-09-12T08:34:25;23.63;;;17.33;;
20671;SDS011;10495;50.922;4.760;2023-09-12T08:36:51;23.92;;;16.13;;
20671;SDS011;10495;50.922;4.760;2023-09-12T08:39:18;23.30;;;15.68;;
20671;SDS011;10495;50.922;4.760;2023-09-12T08:41:51;26.75;;;14.40;;
20671;SDS011;10495;50.922;4.760;2023-09-12T08:44:18;26.30;;;17.63;;
20671;SDS011;10495;50.922;4.760;2023-09-12T08:46:45;22.98;;;13.15;;
20671;SDS011;10495;50.922;4.760;2023-09-12T08:49:12;26.55;;;16.48;;
20671;SDS011;10495;50.922;4.760;2023-09-12T08:51:40;25.77;;;16.77;;
20671;SDS011;10495;50.922;4.760;2023-09-12T08:54:09;32.28;;;17.40;;
20671;SDS011;10495;50.922;4.760;2023-09-12T08:56:35;23.52;;;14.88;;
20671;SDS011;10495;50.922;4.760;2023-09-12T08:59:04;28.55;;;18.67;;
20671;SDS011;10495;50.922;4.760;2023-09-12T09:01:30;28.70;;;18.55;;
20671;SDS011;10495;50.922;4.760;2023-09-12T09:03:57;24.40;;;15.20;;
20671;SDS011;10495;50.922;4.760;2023-09-12T09:06:23;33.90;;;18.83;;
20671;SDS011;10495;50.922;4.760;2023-09-12T09:08:50;19.70;;;12.32;;
20671;SDS011;10495;50.922;4.760;2023-09-12T09:11:16;21.85;;;13.95;;
20671;SDS011;10495;50.922;4.760;2023-09-12T09:13:42;20.42;;;11.90;;
20671;SDS011;10495;50.922;4.760;2023-09-12T09:16:17;20.42;;;12.23;;
20671;SDS011;10495;50.922;4.760;2023-09-12T09:18:51;26.42;;;17.48;;
20671;SDS011;10495;50.922;4.760;2023-09-12T09:21:29;21.73;;;13.90;;
20671;SDS011;10495;50.922;4.760;2023-09-12T09:23:57;24.02;;;15.52;;
20671;SDS011;10495;50.922;4.760;2023-09-12T09:29:13;23.92;;;15.80;;
20671;SDS011;10495;50.922;4.760;2023-09-12T09:31:43;17.88;;;11.65;;
20671;SDS011;10495;50.922;4.760;2023-09-12T09:34:11;16.23;;;11.02;;
20671;SDS011;10495;50.922;4.760;2023-09-12T09:36:44;15.45;;;10.20;;
20671;SDS011;10495;50.922;4.760;2023-09-12T09:39:13;17.85;;;11.63;;
20671;SDS011;10495;50.922;4.760;2023-09-12T09:41:40;16.73;;;10.77;;
20671;SDS011;10495;50.922;4.760;2023-09-12T09:44:07;13.65;;;8.30;;
20671;SDS011;10495;50.922;4.760;2023-09-12T09:46:33;12.02;;;7.75;;
20671;SDS011;10495;50.922;4.760;2023-09-12T09:49:01;16.73;;;11.73;;
20671;SDS011;10495;50.922;4.760;2023-09-12T09:51:27;14.23;;;9.55;;
20671;SDS011;10495;50.922;4.760;2023-09-12T09:53:56;12.77;;;9.32;;
20671;SDS011;10495;50.922;4.760;2023-09-12T09:56:23;16.85;;;10.75;;
20671;SDS011;10495;50.922;4.760;2023-09-12T09:58:54;19.55;;;13.32;;
20671;SDS011;10495;50.922;4.760;2023-09-12T10:01:21;16.80;;;11.50;;
20671;SDS011;10495;50.922;4.760;2023-09-12T10:03:48;19.70;;;13.45;;
20671;SDS011;10495;50.922;4.760;2023-09-12T10:06:16;16.10;;;11.80;;
20671;SDS011;10495;50.922;4.760;2023-09-12T10:08:46;23.23;;;15.07;;
20671;SDS011;10495;50.922;4.760;2023-09-12T10:11:18;11.18;;;8.52;;
20671;SDS011;10495;50.922;4.760;2023-09-12T10:13:54;15.88;;;10.98;;
20671;SDS011;10495;50.922;4.760;2023-09-12T10:16:24;13.15;;;10.27;;
20671;SDS011;10495;50.922;4.760;2023-09-12T10:19:13;19.95;;;11.45;;
20671;SDS011;10495;50.922;4.760;2023-09-12T10:24:34;20.65;;;13.45;;
20671;SDS011;10495;50.922;4.760;2023-09-12T10:27:01;17.60;;;12.32;;
20671;SDS011;10495;50.922;4.760;2023-09-12T10:29:29;14.35;;;9.90;;
20671;SDS011;10495;50.922;4.760;2023-09-12T10:31:55;14.90;;;9.85;;
20671;SDS011;10495;50.922;4.760;2023-09-12T10:34:22;16.63;;;11.75;;
20671;SDS011;10495;50.922;4.760;2023-09-12T10:36:50;15.02;;;9.98;;
20671;SDS011;10495;50.922;4.760;2023-09-12T10:39:16;9.95;;;8.40;;
20671;SDS011;10495;50.922;4.760;2023-09-12T10:41:45;14.52;;;9.45;;
20671;SDS011;10495;50.922;4.760;2023-09-12T10:44:15;17.52;;;12.05;;
20671;SDS011;10495;50.922;4.760;2023-09-12T10:46:41;15.75;;;10.13;;
20671;SDS011;10495;50.922;4.760;2023-09-12T10:49:10;16.67;;;10.32;;
20671;SDS011;10495;50.922;4.760;2023-09-12T10:51:46;15.07;;;9.05;;
20671;SDS011;10495;50.922;4.760;2023-09-12T10:54:16;17.48;;;10.70;;
20671;SDS011;10495;50.922;4.760;2023-09-12T10:57:02;17.70;;;11.52;;
20671;SDS011;10495;50.922;4.760;2023-09-12T11:02:39;16.83;;;12.13;;
20671;SDS011;10495;50.922;4.760;2023-09-12T11:05:51;24.38;;;13.90;;
20671;SDS011;10495;50.922;4.760;2023-09-12T11:07:58;17.30;;;9.40;;
20671;SDS011;10495;50.922;4.760;2023-09-12T11:10:25;13.93;;;8.95;;
20671;SDS011;10495;50.922;4.760;2023-09-12T11:12:52;16.05;;;11.07;;
20671;SDS011;10495;50.922;4.760;2023-09-12T11:15:20;15.70;;;9.93;;
20671;SDS011;10495;50.922;4.760;2023-09-12T11:17:47;14.88;;;10.57;;
20671;SDS011;10495;50.922;4.760;2023-09-12T11:20:48;14.13;;;11.15;;
20671;SDS011;10495;50.922;4.760;2023-09-12T11:23:24;14.05;;;8.50;;
20671;SDS011;10495;50.922;4.760;2023-09-12T11:26:02;13.05;;;7.75;;
20671;SDS011;10495;50.922;4.760;2023-09-12T11:28:32;17.00;;;10.55;;
20671;SDS011;10495;50.922;4.760;2023-09-12T11:30:58;11.95;;;9.05;;
20671;SDS011;10495;50.922;4.760;2023-09-12T11:33:24;9.90;;;8.23;;
20671;SDS011;10495;50.922;4.760;2023-09-12T11:35:53;9.93;;;7.70;;
20671;SDS011;10495;50.922;4.760;2023-09-12T11:38:27;13.70;;;8.45;;
20671;SDS011;10495;50.922;4.760;2023-09-12T11:40:57;12.38;;;9.27;;
20671;SDS011;10495;50.922;4.760;2023-09-12T11:43:24;12.95;;;8.98;;
20671;SDS011;10495;50.922;4.760;2023-09-12T11:45:51;9.88;;;8.13;;
20671;SDS011;10495;50.922;4.760;2023-09-12T11:48:17;12.50;;;8.80;;
20671;SDS011;10495;50.922;4.760;2023-09-12T11:50:48;13.48;;;8.25;;
20671;SDS011;10495;50.922;4.760;2023-09-12T11:53:18;11.10;;;8.32;;
20671;SDS011;10495;50.922;4.760;2023-09-12T11:55:47;12.98;;;8.30;;
20671;SDS011;10495;50.922;4.760;2023-09-12T11:58:20;12.10;;;9.15;;
20671;SDS011;10495;50.922;4.760;2023-09-12T12:00:47;12.70;;;10.02;;
20671;SDS011;10495;50.922;4.760;2023-09-12T12:03:17;10.40;;;7.35;;
20671;SDS011;10495;50.922;4.760;2023-09-12T12:05:47;14.48;;;10.10;;
20671;SDS011;10495;50.922;4.760;2023-09-12T12:08:14;8.25;;;6.63;;
20671;SDS011;10495;50.922;4.760;2023-09-12T12:10:42;10.20;;;7.70;;
20671;SDS011;10495;50.922;4.760;2023-09-12T12:13:11;6.80;;;6.20;;
20671;SDS011;10495;50.922;4.760;2023-09-12T12:15:41;9.77;;;6.60;;
20671;SDS011;10495;50.922;4.760;2023-09-12T12:18:07;11.30;;;6.93;;
20671;SDS011;10495;50.922;4.760;2023-09-12T12:20:32;12.98;;;7.43;;
20671;SDS011;10495;50.922;4.760;2023-09-12T12:22:58;8.63;;;6.68;;
20671;SDS011;10495;50.922;4.760;2023-09-12T12:25:24;7.57;;;6.50;;
20671;SDS011;10495;50.922;4.760;2023-09-12T12:27:49;13.65;;;7.97;;
20671;SDS011;10495;50.922;4.760;2023-09-12T12:30:15;13.35;;;8.48;;
20671;SDS011;10495;50.922;4.760;2023-09-12T12:32:43;16.30;;;9.20;;
20671;SDS011;10495;50.922;4.760;2023-09-12T12:35:18;11.77;;;8.55;;
20671;SDS011;10495;50.922;4.760;2023-09-12T12:37:44;10.07;;;7.47;;
20671;SDS011;10495;50.922;4.760;2023-09-12T12:40:13;11.18;;;7.00;;
20671;SDS011;10495;50.922;4.760;2023-09-12T12:42:39;9.73;;;8.40;;
20671;SDS011;10495;50.922;4.760;2023-09-12T12:45:13;11.25;;;7.38;;
20671;SDS011;10495;50.922;4.760;2023-09-12T12:47:40;9.65;;;6.63;;
20671;SDS011;10495;50.922;4.760;2023-09-12T12:50:07;9.43;;;6.90;;
20671;SDS011;10495;50.922;4.760;2023-09-12T12:52:38;9.10;;;7.35;;
20671;SDS011;10495;50.922;4.760;2023-09-12T12:55:07;13.73;;;7.78;;
20671;SDS011;10495;50.922;4.760;2023-09-12T12:57:35;10.07;;;7.25;;
20671;SDS011;10495;50.922;4.760;2023-09-12T13:00:04;7.80;;;6.60;;
20671;SDS011;10495;50.922;4.760;2023-09-12T13:02:38;8.30;;;6.05;;
20671;SDS011;10495;50.922;4.760;2023-09-12T13:05:18;10.50;;;8.02;;
20671;SDS011;10495;50.922;4.760;2023-09-12T13:07:45;9.85;;;7.32;;
20671;SDS011;10495;50.922;4.760;2023-09-12T13:10:11;14.02;;;9.43;;
20671;SDS011;10495;50.922;4.760;2023-09-12T13:12:36;12.30;;;8.18;;
20671;SDS011;10495;50.922;4.760;2023-09-12T13:15:05;10.70;;;8.63;;
20671;SDS011;10495;50.922;4.760;2023-09-12T13:17:31;9.45;;;7.68;;
20671;SDS011;10495;50.922;4.760;2023-09-12T13:19:56;12.13;;;7.53;;
20671;SDS011;10495;50.922;4.760;2023-09-12T13:22:22;9.48;;;7.03;;
20671;SDS011;10495;50.922;4.760;2023-09-12T13:24:48;9.07;;;7.10;;
20671;SDS011;10495;50.922;4.760;2023-09-12T13:27:14;8.45;;;7.55;;
20671;SDS011;10495;50.922;4.760;2023-09-12T13:29:40;10.35;;;7.75;;
20671;SDS011;10495;50.922;4.760;2023-09-12T13:32:05;12.15;;;9.30;;
20671;SDS011;10495;50.922;4.760;2023-09-12T13:34:31;12.65;;;8.85;;
20671;SDS011;10495;50.922;4.760;2023-09-12T13:36:57;9.25;;;7.45;;
20671;SDS011;10495;50.922;4.760;2023-09-12T13:39:23;16.90;;;9.55;;
20671;SDS011;10495;50.922;4.760;2023-09-12T13:41:49;12.70;;;9.73;;
20671;SDS011;10495;50.922;4.760;2023-09-12T13:44:16;13.35;;;8.68;;
20671;SDS011;10495;50.922;4.760;2023-09-12T13:46:42;11.77;;;10.45;;
20671;SDS011;10495;50.922;4.760;2023-09-12T13:49:12;13.38;;;8.90;;
20671;SDS011;10495;50.922;4.760;2023-09-12T13:51:37;11.02;;;8.15;;
20671;SDS011;10495;50.922;4.760;2023-09-12T13:54:03;12.85;;;9.15;;
20671;SDS011;10495;50.922;4.760;2023-09-12T13:56:29;11.43;;;9.05;;
20671;SDS011;10495;50.922;4.760;2023-09-12T13:58:55;11.00;;;9.02;;
20671;SDS011;10495;50.922;4.760;2023-09-12T14:01:20;10.90;;;9.13;;
20671;SDS011;10495;50.922;4.760;2023-09-12T14:03:48;11.02;;;8.30;;
20671;SDS011;10495;50.922;4.760;2023-09-12T14:06:13;11.52;;;8.00;;
20671;SDS011;10495;50.922;4.760;2023-09-12T14:08:39;11.68;;;8.85;;
20671;SDS011;10495;50.922;4.760;2023-09-12T14:11:05;12.77;;;9.10;;
20671;SDS011;10495;50.922;4.760;2023-09-12T14:13:30;14.20;;;9.55;;
20671;SDS011;10495;50.922;4.760;2023-09-12T14:15:56;11.77;;;9.40;;
20671;SDS011;10495;50.922;4.760;2023-09-12T14:18:21;12.55;;;9.20;;
20671;SDS011;10495;50.922;4.760;2023-09-12T14:20:47;11.57;;;8.90;;
20671;SDS011;10495;50.922;4.760;2023-09-12T14:23:13;11.00;;;8.15;;
20671;SDS011;10495;50.922;4.760;2023-09-12T14:25:38;11.60;;;8.05;;
20671;SDS011;10495;50.922;4.760;2023-09-12T14:28:04;11.68;;;8.52;;
20671;SDS011;10495;50.922;4.760;2023-09-12T14:30:30;11.02;;;8.00;;
20671;SDS011;10495;50.922;4.760;2023-09-12T14:33:01;8.57;;;7.60;;
20671;SDS011;10495;50.922;4.760;2023-09-12T14:35:27;8.43;;;7.50;;
20671;SDS011;10495;50.922;4.760;2023-09-12T14:37:53;11.95;;;7.47;;
20671;SDS011;10495;50.922;4.760;2023-09-12T14:40:19;11.35;;;7.85;;
20671;SDS011;10495;50.922;4.760;2023-09-12T14:42:44;10.75;;;8.00;;
20671;SDS011;10495;50.922;4.760;2023-09-12T14:45:10;12.45;;;7.95;;
20671;SDS011;10495;50.922;4.760;2023-09-12T14:47:36;9.63;;;7.55;;